createdAt,value
2022-09-11T00:01:59.625Z,12.20
2022-09-11T00:04:46.770Z,11.85
2022-09-11T00:07:41.569Z,11.82
2022-09-11T00:10:35.584Z,12.02
2022-09-11T00:13:23.505Z,10.93
2022-09-11T00:16:36.588Z,11.07
2022-09-11T00:22:30.741Z,10.90
2022-09-11T00:25:24.580Z,10.63
2022-09-11T00:28:17.066Z,11.43
2022-09-11T00:31:22.651Z,10.95
2022-09-11T00:34:09.800Z,12.10
2022-09-11T00:37:04.627Z,12.13
2022-09-11T00:39:52.752Z,12.02
2022-09-11T00:42:46.662Z,10.88
2022-09-11T00:45:35.600Z,11.25
2022-09-11T00:48:31.680Z,11.68
2022-09-11T00:51:23.221Z,12.05
2022-09-11T00:54:20.657Z,12.45
2022-09-11T00:57:16.638Z,13.63
2022-09-11T01:00:05.711Z,13.60
2022-09-11T01:03:00.666Z,14.38
2022-09-11T01:05:54.656Z,13.43
2022-09-11T01:08:48.710Z,12.98
2022-09-11T01:11:46.050Z,13.10
2022-09-11T01:14:54.686Z,14.63
2022-09-11T01:17:44.712Z,14.30
2022-09-11T01:21:19.679Z,14.27
2022-09-11T01:24:57.651Z,14.07
2022-09-11T01:27:56.690Z,14.80
2022-09-11T01:30:57.706Z,14.88
2022-09-11T01:33:57.735Z,13.75
2022-09-11T01:36:59.729Z,15.27
2022-09-11T01:39:55.155Z,14.57
2022-09-11T01:42:49.719Z,14.57
2022-09-11T01:45:39.813Z,14.35
2022-09-11T01:48:38.720Z,14.05
2022-09-11T01:51:29.530Z,14.55
2022-09-11T01:54:26.719Z,13.88
2022-09-11T01:57:21.779Z,14.63
2022-09-11T02:00:17.760Z,14.68
2022-09-11T02:03:14.292Z,14.20
2022-09-11T02:06:22.763Z,13.88
2022-09-11T02:09:19.750Z,14.48
2022-09-11T02:12:16.778Z,13.93
2022-09-11T02:15:05.411Z,15.60
2022-09-11T02:18:09.758Z,15.77
2022-09-11T02:20:57.219Z,17.27
2022-09-11T02:23:51.804Z,19.65
2022-09-11T02:26:44.857Z,19.40
2022-09-11T02:29:39.810Z,19.88
2022-09-11T02:32:27.716Z,19.05
2022-09-11T02:35:22.995Z,19.10
2022-09-11T02:38:26.448Z,18.65
2022-09-11T02:41:35.828Z,20.08
2022-09-11T02:45:07.985Z,18.05
2022-09-11T02:48:38.805Z,18.88
2022-09-11T02:51:41.853Z,20.33
2022-09-11T02:54:52.976Z,19.15
2022-09-11T02:57:56.890Z,21.23
2022-09-11T03:00:44.339Z,20.55
2022-09-11T03:03:51.859Z,19.80
2022-09-11T03:06:39.045Z,19.83
2022-09-11T03:09:32.826Z,20.05
2022-09-11T03:12:26.847Z,19.67
2022-09-11T03:15:20.865Z,20.55
2022-09-11T03:18:08.091Z,19.85
2022-09-11T03:21:01.863Z,21.38
2022-09-11T03:23:48.909Z,19.70
2022-09-11T03:26:43.847Z,19.60
2022-09-11T03:29:31.689Z,19.48
2022-09-11T03:32:24.873Z,19.73
2022-09-11T03:35:18.884Z,20.63
2022-09-11T03:38:12.968Z,21.75
2022-09-11T03:41:00.109Z,21.10
2022-09-11T03:43:53.921Z,19.17
2022-09-11T03:46:41.028Z,19.05
2022-09-11T03:49:34.874Z,19.77
2022-09-11T03:52:24.109Z,21.15
2022-09-11T03:55:17.919Z,20.52
2022-09-11T03:58:06.925Z,21.33
2022-09-11T04:01:00.969Z,21.38
2022-09-11T04:03:48.176Z,22.50
2022-09-11T04:06:42.054Z,23.02
2022-09-11T04:09:35.953Z,21.38
2022-09-11T04:12:35.988Z,21.00
2022-09-11T04:15:29.973Z,25.48
2022-09-11T04:18:23.987Z,23.73
2022-09-11T04:21:19.970Z,21.33
2022-09-11T04:24:07.076Z,22.85
2022-09-11T04:27:01.104Z,21.88
2022-09-11T04:29:54.964Z,24.27
2022-09-11T04:32:48.960Z,22.48
2022-09-11T04:35:47.009Z,20.77
2022-09-11T04:38:34.126Z,21.48
2022-09-11T04:41:27.953Z,21.42
2022-09-11T04:44:15.208Z,22.20
2022-09-11T04:47:09.004Z,22.10
2022-09-11T04:50:03.974Z,20.98
2022-09-11T04:52:57.989Z,20.83
2022-09-11T04:55:45.998Z,21.13
2022-09-11T04:58:40.000Z,22.10
2022-09-11T05:01:36.063Z,20.15
2022-09-11T05:04:26.142Z,19.25
2022-09-11T05:07:21.085Z,19.45
2022-09-11T05:10:08.528Z,18.98
2022-09-11T05:13:02.073Z,19.25
2022-09-11T05:15:49.076Z,19.95
2022-09-11T05:18:43.008Z,19.45
2022-09-11T05:21:31.893Z,20.52
2022-09-11T05:24:32.053Z,21.02
2022-09-11T05:27:26.011Z,20.42
2022-09-11T05:30:20.076Z,20.95
2022-09-11T05:33:07.674Z,19.75
2022-09-11T05:36:09.074Z,19.83
2022-09-11T05:38:56.064Z,18.88
2022-09-11T05:41:50.167Z,18.27
2022-09-11T05:44:44.092Z,17.42
2022-09-11T05:47:38.134Z,19.13
2022-09-11T05:50:25.741Z,19.38
2022-09-11T05:53:20.061Z,19.00
2022-09-11T05:56:16.116Z,22.52
2022-09-11T05:59:03.440Z,22.33
2022-09-11T06:01:57.133Z,19.75
2022-09-11T06:04:51.098Z,19.20
2022-09-11T06:07:38.132Z,18.25
2022-09-11T06:10:32.093Z,18.85
2022-09-11T06:13:19.211Z,16.90
2022-09-11T06:16:18.907Z,18.42
2022-09-11T06:19:13.134Z,18.77
2022-09-11T06:22:07.107Z,19.20
2022-09-11T06:25:01.107Z,17.70
2022-09-11T06:27:55.120Z,17.50
2022-09-11T06:30:42.205Z,16.10
2022-09-11T06:33:43.254Z,16.63
2022-09-11T06:36:38.187Z,16.52
2022-09-11T06:39:25.831Z,14.25
2022-09-11T06:42:19.195Z,14.05
2022-09-11T06:45:14.174Z,13.70
2022-09-11T06:48:08.592Z,12.13
2022-09-11T06:51:02.176Z,11.57
2022-09-11T06:53:53.241Z,10.52
2022-09-11T06:56:47.182Z,10.35
2022-09-11T06:59:41.282Z,9.25
2022-09-11T07:02:28.389Z,7.90
2022-09-11T07:05:22.283Z,7.05
2022-09-11T07:08:09.338Z,8.10
2022-09-11T07:11:10.231Z,8.10
2022-09-11T07:13:57.288Z,7.13
2022-09-11T07:16:51.280Z,7.80
2022-09-11T07:19:38.340Z,6.53
2022-09-11T07:22:32.211Z,5.15
2022-09-11T07:25:19.309Z,6.75
2022-09-11T07:28:13.258Z,7.15
2022-09-11T07:31:12.299Z,7.32
2022-09-11T07:34:06.259Z,6.00
2022-09-11T07:36:53.295Z,7.50
2022-09-11T07:39:47.333Z,6.95
2022-09-11T07:42:34.430Z,5.43
2022-09-11T07:45:28.329Z,26.40
2022-09-11T07:48:22.244Z,20.42
2022-09-11T07:51:11.760Z,12.18
2022-09-11T07:54:06.277Z,9.85
2022-09-11T07:56:53.276Z,7.55
2022-09-11T07:59:47.280Z,7.78
2022-09-11T08:02:41.327Z,6.68
2022-09-11T08:05:28.440Z,8.05
2022-09-11T08:08:22.386Z,11.65
2022-09-11T08:11:12.479Z,10.05
2022-09-11T08:14:06.369Z,9.15
2022-09-11T08:17:01.613Z,6.47
2022-09-11T08:19:48.822Z,5.78
2022-09-11T08:22:42.322Z,4.63
2022-09-11T08:25:29.360Z,4.35
2022-09-11T08:28:23.300Z,4.97
2022-09-11T08:31:11.618Z,4.40
2022-09-11T08:34:05.319Z,3.90
2022-09-11T08:36:59.351Z,3.22
2022-09-11T08:39:53.405Z,3.08
2022-09-11T08:42:50.328Z,2.30
2022-09-11T08:45:44.385Z,2.40
2022-09-11T08:48:54.391Z,2.50
2022-09-11T08:51:48.338Z,3.53
2022-09-11T08:54:44.390Z,2.92
2022-09-11T08:58:06.476Z,5.40
2022-09-11T09:01:24.071Z,4.80
2022-09-11T09:04:34.379Z,3.33
2022-09-11T09:07:46.350Z,2.90
2022-09-11T09:10:59.381Z,3.10
2022-09-11T09:14:07.920Z,2.60
2022-09-11T09:17:18.438Z,2.70
2022-09-11T09:20:23.090Z,2.65
2022-09-11T09:23:30.458Z,1.90
2022-09-11T09:26:19.126Z,1.70
2022-09-11T09:29:20.448Z,1.75
2022-09-11T09:32:21.427Z,1.60
2022-09-11T09:35:46.478Z,2.53
2022-09-11T09:38:40.453Z,3.40
2022-09-11T09:41:57.427Z,2.47
2022-09-11T09:45:31.478Z,1.63
2022-09-11T09:48:18.510Z,1.73
2022-09-11T09:51:12.445Z,1.95
2022-09-11T09:54:08.475Z,2.83
2022-09-11T09:57:17.474Z,2.90
2022-09-11T10:00:12.457Z,4.25
2022-09-11T10:03:06.465Z,4.05
2022-09-11T10:05:55.424Z,4.53
2022-09-11T10:08:52.450Z,3.38
2022-09-11T10:11:47.505Z,4.07
2022-09-11T10:14:58.544Z,5.03
2022-09-11T10:17:46.095Z,4.85
2022-09-11T10:20:41.531Z,4.45
2022-09-11T10:23:35.531Z,2.60
2022-09-11T10:26:34.589Z,4.35
2022-09-11T10:29:36.511Z,2.42
2022-09-11T10:32:31.533Z,4.40
2022-09-11T10:35:27.950Z,3.83
2022-09-11T10:38:24.528Z,4.47
2022-09-11T10:41:21.587Z,3.47
2022-09-11T10:44:16.058Z,4.43
2022-09-11T10:47:22.531Z,4.35
2022-09-11T10:50:23.103Z,4.57
2022-09-11T10:53:33.579Z,6.07
2022-09-11T10:56:21.528Z,6.90
2022-09-11T10:59:23.551Z,5.35
2022-09-11T11:02:28.646Z,7.00
2022-09-11T11:06:03.699Z,6.25
2022-09-11T11:09:06.232Z,8.50
2022-09-11T11:12:39.603Z,4.82
2022-09-11T11:15:51.083Z,7.45
2022-09-11T11:19:15.614Z,3.35
2022-09-11T11:22:30.620Z,2.95
2022-09-11T11:25:41.683Z,2.28
2022-09-11T11:29:16.667Z,1.75
2022-09-11T11:32:22.619Z,3.22
2022-09-11T11:35:23.307Z,2.92
2022-09-11T11:38:28.639Z,2.15
2022-09-11T11:41:29.649Z,2.30
2022-09-11T11:44:33.715Z,4.20
2022-09-11T11:47:35.627Z,3.10
2022-09-11T11:50:36.353Z,3.38
2022-09-11T11:53:36.634Z,2.40
2022-09-11T11:56:34.013Z,2.00
2022-09-11T11:59:38.632Z,3.30
2022-09-11T12:02:33.466Z,2.70
2022-09-11T12:05:40.677Z,4.55
2022-09-11T12:08:27.788Z,2.20
2022-09-11T12:11:24.671Z,1.98
2022-09-11T12:14:34.540Z,2.42
2022-09-11T12:17:36.663Z,3.38
2022-09-11T12:20:38.707Z,3.22
2022-09-11T12:23:39.687Z,3.92
2022-09-11T12:26:27.636Z,3.42
2022-09-11T12:29:22.700Z,3.70
2022-09-11T12:32:22.717Z,1.90
2022-09-11T12:35:41.724Z,2.15
2022-09-11T12:38:45.721Z,1.77
2022-09-11T12:41:35.284Z,2.92
2022-09-11T12:44:59.741Z,2.25
2022-09-11T12:47:53.781Z,3.15
2022-09-11T12:50:54.151Z,1.70
2022-09-11T12:53:52.749Z,1.77
2022-09-11T12:56:53.770Z,2.63
2022-09-11T12:59:44.166Z,1.30
2022-09-11T13:02:50.755Z,1.42
2022-09-11T13:05:39.784Z,0.98
2022-09-11T13:08:36.737Z,0.85
2022-09-11T13:11:51.811Z,1.08
2022-09-11T13:14:50.577Z,2.65
2022-09-11T13:17:53.796Z,1.75
2022-09-11T13:20:47.781Z,2.45
2022-09-11T13:23:41.897Z,1.60
2022-09-11T13:26:32.754Z,1.38
2022-09-11T13:29:26.825Z,1.17
2022-09-11T13:32:35.101Z,1.23
2022-09-11T13:35:33.808Z,1.55
2022-09-11T13:38:25.165Z,1.63
2022-09-11T13:41:26.889Z,2.30
2022-09-11T13:44:36.816Z,2.38
2022-09-11T13:47:30.837Z,1.88
2022-09-11T13:50:18.570Z,1.30
2022-09-11T13:53:11.819Z,1.15
2022-09-11T13:56:05.836Z,1.00
2022-09-11T13:58:53.674Z,1.00
2022-09-11T14:02:02.859Z,1.08
2022-09-11T14:04:52.372Z,0.73
2022-09-11T14:08:02.913Z,1.15
2022-09-11T14:10:55.347Z,1.40
2022-09-11T14:13:56.872Z,0.82
2022-09-11T14:16:53.091Z,1.07
2022-09-11T14:19:49.906Z,0.60
2022-09-11T14:22:37.035Z,1.10
2022-09-11T14:25:30.879Z,1.27
2022-09-11T14:28:41.220Z,1.58
2022-09-11T14:31:40.906Z,1.02
2022-09-11T14:34:29.062Z,1.45
2022-09-11T14:37:23.908Z,0.82
2022-09-11T14:40:21.902Z,0.98
2022-09-11T14:43:17.917Z,1.10
2022-09-11T14:46:11.945Z,0.80
2022-09-11T14:49:05.999Z,0.98
2022-09-11T14:51:58.741Z,1.23
2022-09-11T14:54:53.964Z,1.30
2022-09-11T14:57:41.576Z,0.95
2022-09-11T15:00:34.950Z,1.27
2022-09-11T15:03:24.466Z,1.33
2022-09-11T15:06:26.915Z,1.05
2022-09-11T15:12:06.954Z,1.13
2022-09-11T15:15:01.125Z,1.17
2022-09-11T15:17:56.200Z,0.80
2022-09-11T15:20:43.303Z,0.98
2022-09-11T15:23:43.015Z,1.15
2022-09-11T15:26:36.958Z,0.80
2022-09-11T15:29:31.976Z,1.00
2022-09-11T15:32:21.097Z,0.98
2022-09-11T15:35:14.974Z,1.00
2022-09-11T15:38:04.493Z,1.02
2022-09-11T15:41:03.007Z,1.20
2022-09-11T15:43:50.575Z,0.80
2022-09-11T15:46:44.030Z,1.42
2022-09-11T15:49:38.048Z,1.05
2022-09-11T15:52:34.064Z,1.13
2022-09-11T15:55:21.181Z,1.25
2022-09-11T15:58:15.053Z,0.73
2022-09-11T16:01:03.338Z,1.23
2022-09-11T16:04:02.048Z,1.08
2022-09-11T16:06:50.087Z,1.02
2022-09-11T16:09:44.038Z,0.88
2022-09-11T16:12:31.045Z,0.88
2022-09-11T16:15:25.045Z,0.70
2022-09-11T16:18:12.469Z,0.93
2022-09-11T16:21:06.073Z,1.05
2022-09-11T16:23:56.763Z,1.00
2022-09-11T16:26:53.086Z,0.90
2022-09-11T16:32:54.090Z,1.10
2022-09-11T16:35:41.179Z,0.70
2022-09-11T16:38:36.104Z,1.10
2022-09-11T16:41:23.739Z,0.85
2022-09-11T16:44:21.103Z,1.27
2022-09-11T16:47:08.218Z,1.27
2022-09-11T16:50:06.878Z,1.40
2022-09-11T16:53:08.104Z,1.10
2022-09-11T16:56:03.105Z,1.25
2022-09-11T16:58:50.696Z,1.10
2022-09-11T17:01:45.251Z,0.88
2022-09-11T17:04:39.205Z,1.55
2022-09-11T17:07:33.150Z,1.20
2022-09-11T17:10:20.298Z,0.85
2022-09-11T17:13:14.169Z,1.23
2022-09-11T17:16:03.440Z,1.08
2022-09-11T17:19:03.203Z,1.02
2022-09-11T17:21:57.191Z,1.20
2022-09-11T17:24:44.503Z,1.05
2022-09-11T17:27:38.157Z,1.05
2022-09-11T17:30:25.416Z,1.10
2022-09-11T17:33:21.157Z,1.17
2022-09-11T17:36:10.081Z,1.20
2022-09-11T17:39:06.192Z,1.73
2022-09-11T17:41:53.253Z,2.22
2022-09-11T17:44:48.179Z,1.58
2022-09-11T17:47:43.200Z,1.20
2022-09-11T17:50:30.372Z,1.23
2022-09-11T17:53:24.283Z,1.17
2022-09-11T17:56:30.260Z,2.03
2022-09-11T17:59:24.244Z,1.00
2022-09-11T18:02:21.377Z,2.10
2022-09-11T18:05:08.863Z,1.83
2022-09-11T18:08:06.203Z,1.73
2022-09-11T18:11:06.220Z,2.17
2022-09-11T18:13:54.763Z,1.98
2022-09-11T18:16:53.260Z,2.17
2022-09-11T18:19:40.400Z,2.17
2022-09-11T18:22:35.268Z,2.97
2022-09-11T18:25:25.161Z,2.70
2022-09-11T18:28:19.898Z,3.45
2022-09-11T18:31:07.387Z,4.90
2022-09-11T18:34:04.349Z,6.65
2022-09-11T18:36:59.876Z,7.20
2022-09-11T18:39:48.700Z,7.30
2022-09-11T18:42:42.497Z,7.97
2022-09-11T18:45:37.325Z,6.25
2022-09-11T18:48:31.305Z,6.95
2022-09-11T18:51:28.318Z,5.32
2022-09-11T18:54:17.758Z,5.50
2022-09-11T18:57:11.430Z,4.70
2022-09-11T19:00:05.500Z,4.90
2022-09-11T19:03:02.386Z,4.88
2022-09-11T19:05:57.340Z,3.92
2022-09-11T19:08:53.470Z,3.78
2022-09-11T19:11:41.474Z,4.03
2022-09-11T19:14:35.400Z,4.40
2022-09-11T19:17:29.358Z,3.53
2022-09-11T19:20:16.564Z,3.50
2022-09-11T19:23:10.344Z,3.67
2022-09-11T19:26:18.390Z,4.63
2022-09-11T19:29:13.380Z,5.78
2022-09-11T19:32:01.059Z,6.47
2022-09-11T19:34:54.357Z,8.23
2022-09-11T19:37:42.075Z,8.65
2022-09-11T19:40:35.400Z,8.35
2022-09-11T19:43:23.714Z,9.18
2022-09-11T19:46:26.481Z,8.70
2022-09-11T19:49:14.404Z,6.85
2022-09-11T19:52:08.395Z,5.80
2022-09-11T19:55:02.399Z,5.63
2022-09-11T19:57:56.402Z,5.68
2022-09-11T20:00:43.614Z,5.13
2022-09-11T20:03:38.413Z,5.50
2022-09-11T20:06:34.458Z,5.10
2022-09-11T20:09:32.506Z,4.68
2022-09-11T20:12:27.410Z,5.40
2022-09-11T20:15:14.590Z,5.45
2022-09-11T20:18:08.436Z,5.20
2022-09-11T20:21:02.463Z,5.22
2022-09-11T20:24:00.541Z,5.43
2022-09-11T20:26:54.464Z,6.00
2022-09-11T20:29:43.370Z,5.70
2022-09-11T20:32:37.449Z,7.00
2022-09-11T20:35:31.461Z,7.13
2022-09-11T20:38:18.484Z,7.95
2022-09-11T20:41:14.508Z,8.63
2022-09-11T20:44:03.956Z,8.52
2022-09-11T20:46:57.728Z,9.30
2022-09-11T20:49:44.880Z,9.77
2022-09-11T20:52:39.816Z,12.95
2022-09-11T20:55:33.514Z,10.13
2022-09-11T20:58:20.692Z,9.02
2022-09-11T21:01:18.557Z,8.55
2022-09-11T21:04:12.495Z,9.38
2022-09-11T21:07:00.698Z,8.90
2022-09-11T21:09:54.512Z,7.70
2022-09-11T21:12:48.543Z,7.88
2022-09-11T21:15:44.917Z,8.02
2022-09-11T21:18:38.581Z,7.78
2022-09-11T21:21:33.577Z,7.35
2022-09-11T21:24:27.237Z,7.30
2022-09-11T21:27:20.528Z,7.05
2022-09-11T21:30:14.532Z,7.20
2022-09-11T21:33:08.540Z,7.35
2022-09-11T21:35:55.907Z,6.82
2022-09-11T21:38:49.576Z,7.28
2022-09-11T21:41:43.575Z,6.90
2022-09-11T21:44:30.675Z,7.32
2022-09-11T21:47:24.562Z,6.95
2022-09-11T21:50:18.626Z,7.18
2022-09-11T21:53:13.578Z,7.22
2022-09-11T21:56:07.695Z,8.00
2022-09-11T21:59:01.616Z,7.57
2022-09-11T22:01:48.716Z,7.40
2022-09-11T22:04:42.587Z,7.30
2022-09-11T22:07:38.587Z,7.20
2022-09-11T22:10:32.670Z,7.80
2022-09-11T22:13:26.590Z,7.72
2022-09-11T22:16:17.056Z,8.68
2022-09-11T22:19:12.605Z,8.52
2022-09-11T22:22:06.616Z,8.60
2022-09-11T22:24:53.728Z,8.80
2022-09-11T22:27:58.624Z,8.70
2022-09-11T22:30:52.661Z,9.25
2022-09-11T22:33:47.618Z,9.07
2022-09-11T22:36:41.629Z,8.95
2022-09-11T22:39:29.369Z,9.63
2022-09-11T22:42:22.617Z,10.30
2022-09-11T22:45:10.238Z,9.98
2022-09-11T22:48:05.657Z,11.15
2022-09-11T22:51:00.653Z,10.32
2022-09-11T22:53:54.685Z,11.00
2022-09-11T22:56:48.687Z,11.85
2022-09-11T22:59:43.656Z,11.18
2022-09-11T23:02:30.729Z,11.32
2022-09-11T23:05:42.690Z,10.95
2022-09-11T23:08:41.719Z,12.00
2022-09-11T23:11:35.742Z,12.02
2022-09-11T23:14:22.782Z,12.00
2022-09-11T23:17:16.701Z,12.77
2022-09-11T23:20:10.737Z,13.93
2022-09-11T23:22:58.322Z,12.73
2022-09-11T23:25:53.704Z,13.20
2022-09-11T23:28:40.981Z,12.68
2022-09-11T23:31:39.770Z,12.25
2022-09-11T23:34:26.910Z,13.23
2022-09-11T23:37:20.742Z,14.27
2022-09-11T23:40:08.558Z,13.32
2022-09-11T23:43:01.779Z,13.57
2022-09-11T23:45:48.838Z,14.68
2022-09-11T23:48:42.824Z,13.80
2022-09-11T23:51:29.894Z,14.40
2022-09-11T23:54:23.773Z,14.05
2022-09-11T23:57:17.760Z,14.95
